Time;durP1;ratioP1;P1;durP2;ratioP2;P2;SDS_P1;SDS_P2;PMS_P1;PMS_P2;Temp;Humidity;BMP_temperature;BMP_pressure;BME280_temperature;BME280_humidity;BME280_pressure;Samples;Min_cycle;Max_cycle;Signal;HPM_P1;HPM_P2
2021/12/18 00:00:44;;;;;;;;;;;;;;;27.21;56.17;97250.13;606386;233;68795;-70
2021/12/18 00:03:12;;;;;;;;;;;;;;;27.19;55.39;97254.23;608182;233;68535;-69
2021/12/18 00:05:40;;;;;;;;;;;;;;;27.18;55.06;97258.83;608139;233;65114;-69
2021/12/18 00:08:07;;;;;;;;;;;;;;;27.17;53.67;97259.13;608134;233;68789;-69
2021/12/18 00:10:35;;;;;;;;;;;;;;;27.16;53.48;97258.33;608150;233;68446;-69
2021/12/18 00:13:03;;;;;;;;;;;;;;;27.15;54.89;97248.63;608191;233;65093;-63
2021/12/18 00:15:30;;;;;;;;;;;;;;;27.17;52.88;97262.64;608217;233;68783;-63
2021/12/18 00:17:58;;;;;;;;;;;;;;;27.14;56.85;97260.50;608159;233;68864;-63
2021/12/18 00:20:27;;;;;;;;;;;;;;;27.13;53.26;97256.22;608162;233;65021;-63
2021/12/18 00:22:55;;;;;;;;;;;;;;;27.14;53.57;97263.20;608142;233;68773;-63
2021/12/18 00:25:23;;;;;;;;;;;;;;;27.14;55.94;97265.89;608153;233;68757;-63
2021/12/18 00:27:51;;;;;;;;;;;;;;;27.11;55.94;97263.81;608230;233;64958;-63
2021/12/18 00:30:18;;;;;;;;;;;;;;;27.10;53.89;97262.23;608172;233;68810;-63
2021/12/18 00:32:46;;;;;;;;;;;;;;;27.11;54.20;97266.51;608176;233;68670;-63
2021/12/18 00:35:13;;;;;;;;;;;;;;;27.12;55.20;97272.69;608184;233;65084;-63
2021/12/18 00:37:42;;;;;;;;;;;;;;;27.09;57.18;97281.41;608169;233;68451;-63
2021/12/18 00:40:16;;;;;;;;;;;;;;;27.08;53.32;97277.91;608221;233;66590;-63
2021/12/18 00:42:44;;;;;;;;;;;;;;;27.09;56.94;97278.70;607883;233;64951;-63
2021/12/18 00:45:09;;;;;;;;;;;;;;;27.06;55.96;97274.71;607966;233;68872;-63
2021/12/18 00:47:37;;;;;;;;;;;;;;;27.06;56.20;97268.52;608191;233;68858;-63
2021/12/18 00:50:06;;;;;;;;;;;;;;;27.04;53.71;97268.84;608138;233;65115;-63
2021/12/18 00:52:33;;;;;;;;;;;;;;;27.07;57.36;97272.84;608138;233;68801;-63
2021/12/18 00:55:01;;;;;;;;;;;;;;;27.04;54.86;97268.84;608220;233;68549;-63
2021/12/18 00:57:29;;;;;;;;;;;;;;;27.04;54.32;97268.84;608166;233;65073;-70
2021/12/18 01:00:00;;;;;;;;;;;;;;;27.03;55.22;97263.74;607583;233;68868;-69
2021/12/18 01:02:25;;;;;;;;;;;;;;;27.02;55.30;97265.65;604622;234;66713;-69
2021/12/18 01:04:53;;;;;;;;;;;;;;;27.01;54.26;97266.77;604721;234;62997;-69
2021/12/18 01:07:20;;;;;;;;;;;;;;;27.01;54.09;97270.25;604749;234;66468;-69
2021/12/18 01:10:02;;;;;;;;;;;;;;;26.99;56.85;97269.75;604727;234;66637;-69
2021/12/18 01:12:17;;;;;;;;;;;;;;;26.99;54.57;97274.35;603799;234;62745;-63
2021/12/18 01:22:50;;;;;;;;;;;;;;;26.95;54.32;97268.75;604769;234;66528;-62
2021/12/18 01:25:16;;;;;;;;;;;;;;;26.95;54.64;97271.44;604528;234;66412;-61
2021/12/18 01:27:44;;;;;;;;;;;;;;;26.93;57.46;97270.18;604704;234;65080;-62
2021/12/18 01:30:13;;;;;;;;;;;;;;;26.93;58.24;97275.57;604753;234;66462;-62
2021/12/18 01:32:41;;;;;;;;;;;;;;;26.90;57.42;97276.97;604663;234;69039;-62
2021/12/18 01:35:09;;;;;;;;;;;;;;;26.90;56.70;97271.58;604728;234;65011;-62
2021/12/18 01:37:39;;;;;;;;;;;;;;;26.88;56.13;97268.38;604779;234;68904;-62
2021/12/18 01:40:07;;;;;;;;;;;;;;;26.90;55.53;97268.06;604645;233;68656;-68
2021/12/18 01:53:20;;;;;;;;;;;;;;;26.83;54.81;97259.61;604713;234;66472;-62
2021/12/18 01:55:50;;;;;;;;;;;;;;;26.83;58.90;97265.00;604770;234;68727;-62
2021/12/18 01:58:23;;;;;;;;;;;;;;;26.80;57.72;97266.41;604698;232;63029;-62
2021/12/18 02:00:49;;;;;;;;;;;;;;;26.79;55.80;97270.18;606433;232;67000;-62
2021/12/18 02:03:17;;;;;;;;;;;;;;;26.79;56.11;97260.22;608167;233;66711;-62
2021/12/18 02:05:44;;;;;;;;;;;;;;;26.78;56.53;97266.70;608175;233;65092;-62
2021/12/18 02:08:12;;;;;;;;;;;;;;;26.76;58.27;97268.91;608200;233;68720;-62
2021/12/18 02:10:51;;;;;;;;;;;;;;;26.74;58.28;97268.41;608154;233;66337;-62
2021/12/18 02:21:18;;;;;;;;;;;;;;;26.70;57.43;97272.80;608170;233;65212;-62
2021/12/18 02:23:39;;;;;;;;;;;;;;;26.70;57.61;97272.80;607803;233;68683;-62
2021/12/18 02:26:07;;;;;;;;;;;;;;;26.70;54.65;97266.61;608132;233;68762;-62
2021/12/18 02:28:34;;;;;;;;;;;;;;;26.69;58.10;97265.03;608172;233;65002;-61
2021/12/18 02:31:02;;;;;;;;;;;;;;;26.68;59.10;97264.23;608158;233;66424;-62
2021/12/18 02:33:30;;;;;;;;;;;;;;;26.66;56.96;97262.94;608144;233;68601;-62
2021/12/18 02:36:00;;;;;;;;;;;;;;;26.65;60.26;97267.51;608148;233;65077;-62
2021/12/18 02:44:00;;;;;;;;;;;;;;;26.61;57.29;97261.14;608167;233;65277;-62
2021/12/18 02:46:28;;;;;;;;;;;;;;;26.61;57.52;97257.66;607876;233;68827;-69
2021/12/18 02:48:56;;;;;;;;;;;;;;;26.61;57.05;97261.14;608078;233;68918;-68
2021/12/18 02:51:24;;;;;;;;;;;;;;;26.59;59.62;97263.33;608179;233;65056;-68
2021/12/18 02:53:52;;;;;;;;;;;;;;;26.57;58.89;97268.22;608171;233;68882;-68
2021/12/18 02:56:23;;;;;;;;;;;;;;;26.55;59.71;97273.92;608152;233;68777;-68
2021/12/18 02:58:55;;;;;;;;;;;;;;;26.53;60.90;97278.02;608167;233;65012;-68
2021/12/18 03:01:24;;;;;;;;;;;;;;;26.53;62.90;97278.02;608053;233;68847;-68
2021/12/18 03:03:54;;;;;;;;;;;;;;;26.51;61.56;97282.91;608167;233;66410;-69
2021/12/18 03:06:34;;;;;;;;;;;;;;;26.49;59.50;97276.98;608192;233;62931;-68
2021/12/18 03:25:21;;;;;;;;;;;;;;;26.41;61.12;97299.23;608196;233;66054;-68
2021/12/18 03:27:47;;;;;;;;;;;;;;;26.41;61.77;97294.67;608101;233;68478;-68
2021/12/18 03:30:16;;;;;;;;;;;;;;;26.41;62.06;97291.16;608203;233;63138;-68
2021/12/18 03:32:44;;;;;;;;;;;;;;;26.38;62.15;97289.06;608130;233;68784;-68
2021/12/18 03:35:12;;;;;;;;;;;;;;;26.36;62.16;97286.69;608143;233;68700;-68
2021/12/18 03:37:40;;;;;;;;;;;;;;;26.37;60.09;97295.56;608123;233;62977;-68
2021/12/18 03:40:09;;;;;;;;;;;;;;;26.38;61.05;97295.25;608154;233;68735;-69
2021/12/18 03:42:36;;;;;;;;;;;;;;;26.36;62.18;97292.08;608191;233;68742;-68
2021/12/18 03:45:05;;;;;;;;;;;;;;;26.36;62.27;97297.47;608130;233;65050;-68
2021/12/18 03:47:33;;;;;;;;;;;;;;;26.35;62.35;97296.67;608181;233;68911;-68
2021/12/18 03:50:00;;;;;;;;;;;;;;;26.35;62.74;97295.84;608167;233;68713;-68
2021/12/18 03:52:28;;;;;;;;;;;;;;;26.33;62.16;97301.55;608181;233;65121;-68
2021/12/18 03:54:55;;;;;;;;;;;;;;;26.34;62.36;97307.73;608229;233;68485;-68
2021/12/18 03:57:23;;;;;;;;;;;;;;;26.32;62.04;97304.53;608200;233;68397;-68
2021/12/18 03:59:50;;;;;;;;;;;;;;;26.31;60.70;97316.41;607729;233;65033;-68
2021/12/18 04:02:18;;;;;;;;;;;;;;;26.31;61.75;97317.21;604757;234;68820;-68
2021/12/18 04:04:45;;;;;;;;;;;;;;;26.30;62.13;97325.58;604706;234;68877;-68
2021/12/18 04:07:14;;;;;;;;;;;;;;;26.29;61.83;97321.30;604780;234;65020;-68
2021/12/18 04:09:42;;;;;;;;;;;;;;;26.29;60.08;97318.60;604792;234;68824;-68
2021/12/18 04:12:10;;;;;;;;;;;;;;;26.28;62.67;97325.10;604694;234;68492;-68
2021/12/18 04:14:37;;;;;;;;;;;;;;;26.24;58.56;97330.27;604754;234;65030;-68
2021/12/18 04:17:05;;;;;;;;;;;;;;;26.23;62.17;97328.67;604764;234;68683;-68
2021/12/18 04:19:33;;;;;;;;;;;;;;;26.22;64.23;97332.48;604713;234;68665;-68
2021/12/18 04:22:01;;;;;;;;;;;;;;;26.20;63.44;97329.27;604820;234;64990;-68
2021/12/18 04:24:28;;;;;;;;;;;;;;;26.17;61.13;97321.79;604729;232;69358;-69
2021/12/18 04:26:56;;;;;;;;;;;;;;;26.17;62.67;97327.18;604722;234;68639;-62
2021/12/18 04:29:23;;;;;;;;;;;;;;;26.19;60.41;97338.47;604715;234;63814;-62
2021/12/18 04:31:51;;;;;;;;;;;;;;;26.19;61.92;97333.08;604730;234;68953;-62
2021/12/18 04:34:18;;;;;;;;;;;;;;;26.19;62.57;97338.47;604761;234;66659;-62
2021/12/18 04:36:46;;;;;;;;;;;;;;;26.18;63.83;97349.52;604749;234;62922;-69
2021/12/18 04:39:13;;;;;;;;;;;;;;;26.13;61.27;97345.80;604710;234;66621;-70
2021/12/18 04:41:50;;;;;;;;;;;;;;;26.14;63.48;97343.94;604733;234;66536;-69
2021/12/18 04:44:10;;;;;;;;;;;;;;;26.15;62.87;97345.52;604165;234;62741;-69
2021/12/18 04:46:38;;;;;;;;;;;;;;;26.12;62.47;97356.89;604817;234;66579;-68
2021/12/18 04:49:05;;;;;;;;;;;;;;;26.11;61.95;97352.62;604720;234;66565;-68
2021/12/18 04:51:33;;;;;;;;;;;;;;;26.12;58.53;97356.89;604720;234;62989;-68
2021/12/18 04:54:00;;;;;;;;;;;;;;;26.14;61.23;97370.87;604687;234;66598;-69
2021/12/18 04:56:28;;;;;;;;;;;;;;;26.13;61.52;97371.95;604724;234;68621;-68
2021/12/18 04:58:55;;;;;;;;;;;;;;;26.08;64.33;97374.73;604800;234;62735;-62
2021/12/18 05:01:23;;;;;;;;;;;;;;;26.08;61.83;97374.73;604735;233;66527;-69
2021/12/18 05:03:50;;;;;;;;;;;;;;;26.06;64.01;97379.63;604710;234;66447;-62
2021/12/18 05:06:18;;;;;;;;;;;;;;;26.07;61.47;97381.22;604706;234;65042;-68
2021/12/18 05:08:45;;;;;;;;;;;;;;;26.05;59.27;97381.50;604750;234;68618;-68
2021/12/18 05:11:13;;;;;;;;;;;;;;;26.05;63.64;97384.20;604742;234;68315;-68
2021/12/18 05:13:40;;;;;;;;;;;;;;;26.06;62.15;97393.89;604688;234;64887;-68
2021/12/18 05:16:08;;;;;;;;;;;;;;;26.04;61.54;97397.97;604754;234;68944;-68
2021/12/18 05:18:35;;;;;;;;;;;;;;;26.06;64.15;97403.88;604686;234;68959;-68
2021/12/18 05:21:03;;;;;;;;;;;;;;;26.02;64.24;97400.95;604730;234;65032;-68
2021/12/18 05:23:30;;;;;;;;;;;;;;;26.03;58.59;97404.46;604764;234;68808;-68
2021/12/18 05:25:58;;;;;;;;;;;;;;;26.02;61.41;97413.62;604716;234;68667;-68
2021/12/18 05:28:25;;;;;;;;;;;;;;;25.99;62.45;97408.83;604732;234;65055;-68
2021/12/18 05:30:53;;;;;;;;;;;;;;;26.01;63.68;97418.21;604727;234;68937;-68
2021/12/18 05:33:20;;;;;;;;;;;;;;;25.97;62.57;97427.16;604675;234;66331;-68
2021/12/18 05:35:48;;;;;;;;;;;;;;;25.96;61.60;97420.98;604781;234;62990;-68
2021/12/18 05:38:15;;;;;;;;;;;;;;;25.95;63.22;97422.09;604717;234;68531;-69
2021/12/18 05:40:43;;;;;;;;;;;;;;;25.95;58.90;97424.78;604737;234;68620;-68
2021/12/18 05:43:10;;;;;;;;;;;;;;;25.97;62.97;97429.86;604727;234;64892;-68
2021/12/18 05:45:38;;;;;;;;;;;;;;;25.94;57.75;97428.55;604747;234;66835;-68
2021/12/18 05:48:06;;;;;;;;;;;;;;;25.95;63.84;97440.14;604739;234;66390;-68
2021/12/18 05:50:34;;;;;;;;;;;;;;;25.90;62.33;97438.31;604724;234;62939;-69
2021/12/18 05:53:01;;;;;;;;;;;;;;;25.91;61.23;97440.70;604717;234;68708;-68
2021/12/18 05:55:30;;;;;;;;;;;;;;;25.90;59.46;97449.88;604725;234;66433;-68
2021/12/18 05:57:58;;;;;;;;;;;;;;;25.90;64.24;97449.88;604716;234;65118;-68
2021/12/18 06:00:25;;;;;;;;;;;;;;;25.90;62.37;97435.62;605990;233;68849;-68
2021/12/18 06:02:53;;;;;;;;;;;;;;;25.86;62.03;97451.58;608159;233;68654;-67
2021/12/18 06:05:20;;;;;;;;;;;;;;;25.86;58.68;97446.19;608143;233;63815;-68
2021/12/18 06:07:55;;;;;;;;;;;;;;;25.90;63.74;97441.01;608170;233;66689;-70
2021/12/18 06:10:24;;;;;;;;;;;;;;;25.82;60.10;97447.02;608082;233;68695;-69
2021/12/18 06:12:52;;;;;;;;;;;;;;;25.77;62.02;97449.78;608143;233;63016;-70
2021/12/18 06:15:19;;;;;;;;;;;;;;;25.78;63.50;97451.38;608180;233;66497;-70
2021/12/18 06:17:47;;;;;;;;;;;;;;;25.77;64.32;97449.78;608182;233;68685;-70
2021/12/18 06:20:14;;;;;;;;;;;;;;;25.77;64.24;97455.17;608170;233;64888;-70
2021/12/18 06:22:42;;;;;;;;;;;;;;;25.76;64.35;97448.20;608178;233;68800;-70
2021/12/18 06:25:09;;;;;;;;;;;;;;;25.78;64.62;97457.58;608160;233;68394;-70
2021/12/18 06:27:37;;;;;;;;;;;;;;;25.76;61.27;97462.45;608106;233;62754;-71
2021/12/18 06:30:05;;;;;;;;;;;;;;;25.79;57.97;97459.17;608149;233;68858;-71
2021/12/18 06:32:33;;;;;;;;;;;;;;;25.81;57.91;97461.56;608127;233;69002;-72
2021/12/18 06:35:00;;;;;;;;;;;;;;;25.82;59.98;97463.97;608152;233;65172;-71
2021/12/18 06:37:28;;;;;;;;;;;;;;;25.80;58.69;97462.66;608075;233;69320;-71
2021/12/18 06:39:55;;;;;;;;;;;;;;;25.83;60.94;97472.84;608175;233;66418;-71
2021/12/18 06:42:23;;;;;;;;;;;;;;;25.80;59.92;97479.61;608135;233;62751;-71
2021/12/18 06:44:52;;;;;;;;;;;;;;;25.81;60.67;97477.71;608170;233;50079;-71
2021/12/18 06:47:20;;;;;;;;;;;;;;;25.82;61.90;97490.10;608140;233;66520;-71
2021/12/18 06:49:47;;;;;;;;;;;;;;;25.80;59.34;97498.45;608147;233;64869;-68
2021/12/18 06:52:15;;;;;;;;;;;;;;;25.80;59.65;97493.07;608164;233;66128;-68
2021/12/18 06:54:42;;;;;;;;;;;;;;;25.82;60.92;97503.56;607975;233;68602;-67
2021/12/18 06:57:10;;;;;;;;;;;;;;;25.82;64.51;97501.66;607415;233;64886;-62
2021/12/18 06:59:37;;;;;;;;;;;;;;;25.80;62.15;97513.81;607722;233;70358;-61
2021/12/18 07:02:05;;;;;;;;;;;;;;;25.75;65.56;97506.59;608345;233;68706;-60
2021/12/18 07:04:32;;;;;;;;;;;;;;;25.76;60.96;97507.42;608303;233;65136;-61
2021/12/18 07:07:00;;;;;;;;;;;;;;;25.77;61.06;97515.19;608438;233;66292;-60
2021/12/18 07:09:27;;;;;;;;;;;;;;;25.79;60.14;97520.30;608395;233;66702;-61
2021/12/18 07:11:55;;;;;;;;;;;;;;;25.79;65.00;97522.99;608409;233;65192;-61
2021/12/18 07:14:22;;;;;;;;;;;;;;;25.76;65.16;97524.37;608493;233;68350;-61
2021/12/18 07:16:50;;;;;;;;;;;;;;;25.76;64.78;97526.27;608479;233;68511;-61
2021/12/18 07:19:18;;;;;;;;;;;;;;;25.75;65.71;97520.06;608426;233;65007;-62
2021/12/18 07:21:45;;;;;;;;;;;;;;;25.75;66.22;97521.95;608445;233;68457;-65
2021/12/18 07:24:13;;;;;;;;;;;;;;;25.75;65.25;97524.64;608521;233;67258;-67
2021/12/18 07:26:40;;;;;;;;;;;;;;;25.75;65.28;97527.34;608456;233;65087;-67
2021/12/18 07:29:08;;;;;;;;;;;;;;;25.76;65.21;97535.14;608525;233;65331;-63
2021/12/18 07:31:36;;;;;;;;;;;;;;;25.79;64.42;97531.06;608573;233;69179;-63
2021/12/18 07:34:03;;;;;;;;;;;;;;;25.79;63.78;97534.55;608452;233;65148;-65
2021/12/18 07:36:32;;;;;;;;;;;;;;;25.82;63.36;97539.36;608481;233;68292;-65
2021/12/18 07:38:59;;;;;;;;;;;;;;;25.88;60.88;97546.30;608532;233;66396;-63
2021/12/18 07:41:27;;;;;;;;;;;;;;;25.93;57.74;97539.26;608435;233;65353;-64
2021/12/18 07:43:54;;;;;;;;;;;;;;;26.00;60.62;97545.06;608498;233;68706;-60
2021/12/18 07:46:22;;;;;;;;;;;;;;;26.04;60.54;97548.80;608500;233;69031;-60
2021/12/18 07:48:49;;;;;;;;;;;;;;;26.11;56.15;97541.16;608349;233;65037;-64
2021/12/18 07:51:17;;;;;;;;;;;;;;;26.16;55.25;97554.53;608418;233;68847;-61
2021/12/18 07:53:44;;;;;;;;;;;;;;;26.25;55.70;97560.08;608440;233;68674;-61
2021/12/18 07:56:12;;;;;;;;;;;;;;;26.31;54.69;97559.70;608427;233;64971;-61
2021/12/18 07:58:40;;;;;;;;;;;;;;;26.36;54.71;97558.83;608438;233;68767;-61
2021/12/18 08:01:07;;;;;;;;;;;;;;;26.42;54.44;97567.64;608400;233;66469;-60
2021/12/18 08:03:35;;;;;;;;;;;;;;;26.46;54.30;97571.34;608451;233;62860;-61
2021/12/18 08:06:03;;;;;;;;;;;;;;;26.49;54.41;97568.88;608304;233;68503;-60
2021/12/18 08:08:31;;;;;;;;;;;;;;;26.55;54.39;97575.02;602517;233;66734;-61
2021/12/18 08:10:58;;;;;;;;;;;;;;;26.60;54.18;97584.89;608532;233;62886;-61
2021/12/18 08:13:25;;;;;;;;;;;;;;;26.64;53.83;97581.33;608453;233;67696;-61
2021/12/18 08:15:53;;;;;;;;;;;;;;;26.67;53.89;97586.13;608405;233;66715;-60
2021/12/18 08:18:20;;;;;;;;;;;;;;;26.70;54.14;97590.13;608503;233;63005;-60
2021/12/18 08:20:48;;;;;;;;;;;;;;;26.72;54.07;97588.75;608479;233;68938;-60
2021/12/18 08:23:16;;;;;;;;;;;;;;;26.75;53.98;97582.76;608482;233;69375;-59
2021/12/18 08:25:43;;;;;;;;;;;;;;;26.76;54.95;97595.16;608487;233;64865;-58
2021/12/18 08:28:11;;;;;;;;;;;;;;;26.79;54.07;97581.09;608365;233;68617;-59
2021/12/18 08:30:39;;;;;;;;;;;;;;;26.83;53.99;97583.19;608380;233;68626;-59
2021/12/18 08:33:07;;;;;;;;;;;;;;;26.87;53.88;97584.19;608477;233;64983;-59
2021/12/18 08:35:35;;;;;;;;;;;;;;;26.89;53.96;97592.79;608371;233;68865;-59
2021/12/18 08:38:04;;;;;;;;;;;;;;;26.88;53.81;97580.41;608475;233;68689;-65
2021/12/18 08:40:32;;;;;;;;;;;;;;;26.91;53.55;97574.42;608453;233;65042;-74
2021/12/18 08:42:59;;;;;;;;;;;;;;;26.95;54.34;97580.81;608460;233;68797;-59
2021/12/18 08:45:27;;;;;;;;;;;;;;;26.97;53.54;97579.42;608404;233;68678;-61
2021/12/18 08:47:55;;;;;;;;;;;;;;;26.97;54.72;97586.72;608483;233;65063;-61
2021/12/18 08:50:23;;;;;;;;;;;;;;;27.02;55.43;97586.63;608502;233;68825;-64
2021/12/18 08:52:51;;;;;;;;;;;;;;;27.03;55.90;97588.22;608460;233;68357;-61
2021/12/18 08:55:20;;;;;;;;;;;;;;;27.01;54.74;97596.62;608436;233;62666;-63
2021/12/18 08:57:47;;;;;;;;;;;;;;;27.06;55.57;97601.11;608392;233;68885;-59
2021/12/18 09:00:17;;;;;;;;;;;;;;;27.08;54.39;97611.62;607380;233;69018;-60
2021/12/18 09:02:45;;;;;;;;;;;;;;;27.10;55.48;97610.23;605033;234;64937;-61
2021/12/18 09:05:15;;;;;;;;;;;;;;;27.10;54.05;97615.63;604994;234;68853;-62
2021/12/18 09:07:43;;;;;;;;;;;;;;;27.12;54.65;97618.01;604979;234;68595;-63
2021/12/18 09:10:11;;;;;;;;;;;;;;;27.12;54.18;97616.14;605017;234;63000;-62
2021/12/18 09:12:39;;;;;;;;;;;;;;;27.12;54.71;97616.14;604985;234;68816;-63
2021/12/18 09:15:07;;;;;;;;;;;;;;;27.13;53.28;97620.42;605035;234;68623;-62
2021/12/18 09:17:35;;;;;;;;;;;;;;;27.13;53.06;97620.42;605054;234;65115;-63
2021/12/18 09:20:03;;;;;;;;;;;;;;;27.12;53.12;97623.41;604955;234;68452;-62
2021/12/18 09:22:31;;;;;;;;;;;;;;;27.15;53.16;97620.94;604898;234;66739;-65
2021/12/18 09:24:59;;;;;;;;;;;;;;;27.10;53.44;97621.02;604996;234;65063;-64
2021/12/18 09:27:27;;;;;;;;;;;;;;;27.25;55.60;97627.27;604978;234;66901;-69
2021/12/18 09:29:55;;;;;;;;;;;;;;;27.23;53.78;97625.68;605076;234;66515;-61
2021/12/18 09:32:23;;;;;;;;;;;;;;;27.17;54.36;97626.88;605064;234;62755;-67
2021/12/18 09:34:50;;;;;;;;;;;;;;;27.16;54.17;97625.25;604976;234;66471;-62
2021/12/18 09:37:18;;;;;;;;;;;;;;;27.13;54.17;97622.33;605029;234;68521;-63
2021/12/18 09:39:45;;;;;;;;;;;;;;;27.15;55.10;97629.03;605010;234;66275;-64
2021/12/18 09:42:13;;;;;;;;;;;;;;;27.08;54.81;97638.59;605070;234;68493;-64
2021/12/18 09:44:40;;;;;;;;;;;;;;;27.07;54.55;97631.61;604972;234;69591;-72
2021/12/18 09:47:08;;;;;;;;;;;;;;;27.06;54.87;97636.18;605029;234;65207;-73
2021/12/18 09:49:36;;;;;;;;;;;;;;;27.07;55.20;97637.01;604881;234;68832;-72
2021/12/18 09:52:03;;;;;;;;;;;;;;;27.07;56.24;97637.80;605005;234;68668;-72
2021/12/18 09:54:31;;;;;;;;;;;;;;;27.09;55.64;97643.70;605070;234;64912;-72
2021/12/18 09:56:59;;;;;;;;;;;;;;;27.08;54.93;97636.69;604964;234;66612;-73
2021/12/18 09:59:27;;;;;;;;;;;;;;;27.08;55.47;97639.39;605007;234;68492;-72
2021/12/18 10:01:54;;;;;;;;;;;;;;;27.07;54.93;97645.09;605001;234;64903;-73
2021/12/18 10:04:29;;;;;;;;;;;;;;;27.08;55.38;97647.48;604927;234;68824;-73
2021/12/18 10:06:58;;;;;;;;;;;;;;;27.09;55.16;97643.70;605034;234;68635;-72
2021/12/18 10:09:28;;;;;;;;;;;;;;;27.08;54.78;97638.59;604965;234;65101;-72
2021/12/18 10:12:00;;;;;;;;;;;;;;;27.09;55.38;97641.02;604980;234;68707;-71
2021/12/18 10:14:38;;;;;;;;;;;;;;;27.09;55.32;97643.70;604985;234;68965;-71
2021/12/18 10:17:07;;;;;;;;;;;;;;;27.09;55.02;97632.92;604961;234;62702;-71
2021/12/18 10:19:36;;;;;;;;;;;;;;;27.11;55.32;97638.80;603957;234;68812;-70
2021/12/18 10:22:05;;;;;;;;;;;;;;;27.16;54.31;97630.65;604770;234;68524;-68
2021/12/18 10:24:34;;;;;;;;;;;;;;;27.27;53.40;97642.06;605035;234;64933;-67
2021/12/18 10:27:03;;;;;;;;;;;;;;;27.29;53.17;97633.69;605026;234;68714;-69
2021/12/18 10:29:35;;;;;;;;;;;;;;;27.37;54.37;97639.19;604456;234;68708;-69
2021/12/18 10:32:07;;;;;;;;;;;;;;;27.27;54.31;97639.37;604989;234;65402;-70
2021/12/18 10:34:35;;;;;;;;;;;;;;;27.25;54.01;97640.76;605040;234;66186;-71
2021/12/18 10:37:16;;;;;;;;;;;;;;;27.20;53.99;97636.24;605063;234;68528;-70
2021/12/18 10:39:47;;;;;;;;;;;;;;;27.20;53.20;97637.06;604902;234;63088;-70
2021/12/18 10:42:16;;;;;;;;;;;;;;;27.21;54.63;97640.56;604522;234;66756;-71
2021/12/18 10:44:45;;;;;;;;;;;;;;;27.19;54.52;97640.05;604940;234;68735;-71
2021/12/18 10:47:13;;;;;;;;;;;;;;;27.19;54.76;97640.05;603783;234;63006;-70
2021/12/18 10:49:41;;;;;;;;;;;;;;;27.16;55.09;97627.95;605019;234;68722;-70
2021/12/18 10:52:08;;;;;;;;;;;;;;;27.17;55.92;97640.36;604997;232;68827;-69
2021/12/18 10:54:36;;;;;;;;;;;;;;;27.19;54.92;97638.14;604987;234;65083;-70
2021/12/18 10:57:03;;;;;;;;;;;;;;;27.15;55.01;97634.42;604911;234;68909;-68
2021/12/18 10:59:36;;;;;;;;;;;;;;;27.18;55.02;97628.46;604987;234;68746;-69
2021/12/18 11:02:05;;;;;;;;;;;;;;;27.16;55.09;97629.83;605006;234;65077;-69
2021/12/18 11:04:34;;;;;;;;;;;;;;;27.18;54.71;97628.46;604719;234;66612;-69
2021/12/18 11:07:22;;;;;;;;;;;;;;;27.18;54.86;97627.66;604773;234;68695;-69
2021/12/18 11:10:11;;;;;;;;;;;;;;;27.16;55.00;97627.95;605060;234;65194;-68
2021/12/18 11:15:05;;;;;;;;;;;;;;;27.19;54.99;97630.05;604908;234;66531;-67
2021/12/18 11:17:32;;;;;;;;;;;;;;;27.20;55.60;97634.38;605040;234;65216;-67
2021/12/18 11:20:00;;;;;;;;;;;;;;;27.20;55.07;97628.15;605037;234;68929;-67
2021/12/18 11:22:27;;;;;;;;;;;;;;;27.18;54.87;97627.66;604983;234;68044;-67
2021/12/18 11:25:02;;;;;;;;;;;;;;;27.18;54.92;97624.97;604986;234;65090;-67
2021/12/18 11:27:32;;;;;;;;;;;;;;;27.19;54.79;97621.95;604880;232;68541;-68
2021/12/18 11:30:01;;;;;;;;;;;;;;;27.20;55.52;97617.35;604738;234;68583;-68
2021/12/18 11:32:31;;;;;;;;;;;;;;;27.22;54.90;97624.06;603944;234;65074;-69
2021/12/18 11:35:04;;;;;;;;;;;;;;;27.25;54.59;97629.97;604664;234;68540;-59
2021/12/18 11:37:30;;;;;;;;;;;;;;;27.21;54.81;97618.97;604857;234;66432;-63
2021/12/18 11:39:58;;;;;;;;;;;;;;;27.28;54.09;97626.67;604930;234;65044;-65
2021/12/18 11:42:29;;;;;;;;;;;;;;;27.34;54.43;97639.00;605052;234;68506;-61
2021/12/18 11:44:58;;;;;;;;;;;;;;;27.26;55.57;97623.48;605099;234;68624;-64
2021/12/18 11:47:35;;;;;;;;;;;;;;;27.27;55.02;97630.48;605084;234;64825;-63
2021/12/18 11:50:07;;;;;;;;;;;;;;;27.25;55.12;97621.87;605042;234;67479;-65
2021/12/18 11:52:54;;;;;;;;;;;;;;;27.25;55.17;97624.57;605044;234;69011;-64
2021/12/18 11:55:23;;;;;;;;;;;;;;;27.23;55.57;97625.68;605028;234;64975;-64
2021/12/18 11:57:52;;;;;;;;;;;;;;;27.24;55.09;97629.17;605062;234;69071;-64
2021/12/18 12:00:21;;;;;;;;;;;;;;;27.24;54.71;97629.17;604831;234;67734;-64
2021/12/18 12:02:50;;;;;;;;;;;;;;;27.28;55.13;97637.46;604380;234;64890;-65
2021/12/18 12:05:19;;;;;;;;;;;;;;;27.22;54.81;97640.25;604375;234;68938;-65
2021/12/18 12:07:50;;;;;;;;;;;;;;;27.25;54.84;97641.55;604416;234;68571;-65
2021/12/18 12:10:23;;;;;;;;;;;;;;;27.23;54.90;97646.47;604324;234;65272;-65
2021/12/18 12:12:57;;;;;;;;;;;;;;;27.26;54.85;97645.87;604382;234;68805;-65
2021/12/18 12:15:26;;;;;;;;;;;;;;;27.26;55.31;97650.47;604417;234;68677;-65
2021/12/18 12:18:03;;;;;;;;;;;;;;;27.27;54.11;97641.27;604410;233;63017;-65
2021/12/18 12:20:46;;;;;;;;;;;;;;;27.26;54.25;97643.17;604331;234;66625;-64
2021/12/18 12:23:14;;;;;;;;;;;;;;;27.27;53.96;97644.77;604405;234;66676;-65
2021/12/18 12:25:43;;;;;;;;;;;;;;;27.26;54.04;97635.08;604267;234;65043;-62
2021/12/18 12:28:12;;;;;;;;;;;;;;;27.17;53.68;97634.14;604371;234;69993;-59
2021/12/18 12:30:46;;;;;;;;;;;;;;;27.23;54.80;97624.88;604465;234;66389;-59
2021/12/18 12:33:12;;;;;;;;;;;;;;;27.24;54.83;97634.56;603593;234;62827;-59
2021/12/18 12:35:44;;;;;;;;;;;;;;;27.25;55.18;97632.66;603368;234;68787;-59
2021/12/18 12:38:14;;;;;;;;;;;;;;;27.26;54.49;97631.59;599803;234;66350;-68
2021/12/18 12:40:41;;;;;;;;;;;;;;;27.26;54.92;97623.48;592413;234;66626;-69
2021/12/18 12:43:19;;;;;;;;;;;;;;;27.27;55.25;97622.37;592617;234;68450;-68
2021/12/18 12:45:49;;;;;;;;;;;;;;;27.24;54.93;97626.47;604435;234;67688;-68
2021/12/18 12:48:17;;;;;;;;;;;;;;;27.28;54.64;97632.86;604392;234;64996;-68
2021/12/18 12:50:46;;;;;;;;;;;;;;;27.29;55.07;97631.78;604370;234;68712;-68
2021/12/18 12:53:14;;;;;;;;;;;;;;;27.30;55.46;97640.67;604057;234;68789;-68
2021/12/18 12:55:46;;;;;;;;;;;;;;;27.29;55.50;97629.08;604402;234;65010;-68
2021/12/18 12:58:21;;;;;;;;;;;;;;;27.29;55.02;97639.08;604461;234;68772;-68
2021/12/18 13:00:50;;;;;;;;;;;;;;;27.32;55.18;97638.48;604368;234;68835;-68
2021/12/18 13:03:19;;;;;;;;;;;;;;;27.32;55.13;97649.28;604189;234;65040;-68
2021/12/18 13:05:48;;;;;;;;;;;;;;;27.33;55.88;97648.97;604412;234;68365;-68
2021/12/18 13:08:16;;;;;;;;;;;;;;;27.34;55.50;97647.09;604374;234;66457;-68
2021/12/18 13:10:47;;;;;;;;;;;;;;;27.34;55.21;97655.98;604401;234;64908;-68
2021/12/18 13:13:15;;;;;;;;;;;;;;;27.33;55.36;97665.16;604479;234;68884;-69
2021/12/18 13:15:47;;;;;;;;;;;;;;;27.36;55.31;97658.37;604425;234;68647;-68
2021/12/18 13:18:14;;;;;;;;;;;;;;;27.33;56.05;97667.06;604399;234;63035;-68
2021/12/18 13:20:45;;;;;;;;;;;;;;;27.37;55.56;97665.39;604426;234;66705;-68
2021/12/18 13:23:22;;;;;;;;;;;;;;;27.34;55.13;97658.68;604405;234;66547;-67
2021/12/18 13:25:47;;;;;;;;;;;;;;;27.37;56.16;97662.69;604081;234;62686;-68
2021/12/18 13:28:14;;;;;;;;;;;;;;;27.37;56.70;97659.98;604386;234;66803;-68
2021/12/18 13:30:42;;;;;;;;;;;;;;;27.36;55.83;97656.47;604407;234;66709;-68
2021/12/18 13:33:09;;;;;;;;;;;;;;;27.36;55.14;97661.86;604421;234;65065;-67
2021/12/18 13:35:38;;;;;;;;;;;;;;;27.34;55.24;97661.38;604364;234;68879;-68
2021/12/18 13:38:06;;;;;;;;;;;;;;;27.35;54.73;97662.17;604322;234;68510;-68
2021/12/18 13:40:35;;;;;;;;;;;;;;;27.35;55.85;97665.67;604422;232;64864;-68
2021/12/18 13:43:10;;;;;;;;;;;;;;;27.37;56.32;97666.18;604380;234;68788;-68
2021/12/18 13:45:54;;;;;;;;;;;;;;;27.38;55.84;97669.67;604382;234;66624;-59